Time;durP1;ratioP1;P1;durP2;ratioP2;P2;SDS_P1;SDS_P2;PMS_P1;PMS_P2;Temp;Humidity;BMP_temperature;BMP_pressure;BME280_temperature;BME280_humidity;BME280_pressure;Samples;Min_cycle;Max_cycle;Signal;HPM_P1;HPM_P2
2022/06/02 00:00:16;;;;;;;;;2.25;2.25;;;;;16.79;41.22;101489.72;6310378;22;45428;-88
2022/06/02 00:03:32;;;;;;;;;2.00;2.00;;;;;16.79;41.36;101494.19;6282223;22;47001;-86
2022/06/02 00:06:10;;;;;;;;;2.50;2.50;;;;;16.76;41.47;101501.28;6254174;22;45456;-86
2022/06/02 00:08:54;;;;;;;;;3.00;2.00;;;;;16.75;41.23;101496.84;6280253;22;45401;-85
2022/06/02 00:11:29;;;;;;;;;2.50;2.50;;;;;16.75;41.61;101501.28;6309501;22;45456;-78
2022/06/02 00:14:25;;;;;;;;;2.00;2.00;;;;;16.73;41.51;101508.41;6280386;22;47890;-82
2022/06/02 00:17:01;;;;;;;;;3.25;3.25;;;;;16.72;41.62;101502.22;6304455;22;45500;-83
2022/06/02 00:19:41;;;;;;;;;2.00;2.00;;;;;16.70;41.62;101496.03;6280493;22;45267;-82
2022/06/02 00:22:33;;;;;;;;;2.00;2.00;;;;;16.68;41.85;101508.50;6306210;22;45901;-83
2022/06/02 00:25:10;;;;;;;;;1.25;1.25;;;;;16.67;41.94;101506.72;6309155;22;45999;-82
2022/06/02 00:27:56;;;;;;;;;4.00;2.50;;;;;16.64;41.83;101504.13;6306371;22;45302;-83
2022/06/02 00:30:28;;;;;;;;;3.75;3.75;;;;;16.63;42.00;101510.34;6303720;22;45421;-82
2022/06/02 00:33:11;;;;;;;;;1.25;1.25;;;;;16.62;41.99;101515.69;6306375;22;45592;-83
2022/06/02 00:35:37;;;;;;;;;3.00;3.00;;;;;16.60;42.25;101520.13;6304348;22;47316;-82
2022/06/02 00:38:12;;;;;;;;;2.00;2.00;;;;;16.58;42.09;101520.19;6307548;22;45224;-82
2022/06/02 00:40:38;;;;;;;;;4.75;3.50;;;;;16.55;42.14;101512.25;6278821;22;45509;-83
2022/06/02 00:43:15;;;;;;;;;4.25;4.25;;;;;16.52;42.54;101518.50;6278918;22;45314;-82
2022/06/02 00:45:46;;;;;;;;;4.75;4.00;;;;;16.48;42.44;101523.88;6281302;22;46988;-82
2022/06/02 00:48:25;;;;;;;;;3.75;3.75;;;;;16.44;42.34;101520.41;6281477;22;45306;-83
2022/06/02 00:50:54;;;;;;;;;3.50;3.00;;;;;16.38;42.59;101516.94;6309027;22;45231;-83
2022/06/02 00:53:39;;;;;;;;;3.25;3.25;;;;;16.33;42.78;101514.34;6309356;22;45405;-82
2022/06/02 00:59:49;;;;;;;;;3.75;3.00;;;;;16.26;43.20;101507.41;6308784;22;45189;-83
2022/06/02 01:02:16;;;;;;;;;2.00;2.00;;;;;16.23;43.19;101516.28;6281069;22;45338;-83
2022/06/02 01:04:43;;;;;;;;;4.25;4.00;;;;;16.22;43.13;101516.28;6282388;22;45827;-83
2022/06/02 01:07:26;;;;;;;;;5.25;4.50;;;;;16.21;43.17;101518.06;6310244;22;45607;-83
2022/06/02 01:10:18;;;;;;;;;4.75;3.25;;;;;16.15;43.29;101514.66;6282623;22;45398;-83
2022/06/02 01:13:02;;;;;;;;;4.25;4.25;;;;;16.08;43.53;101512.06;6300055;22;45365;-82
2022/06/02 01:15:59;;;;;;;;;4.00;4.00;;;;;16.03;43.65;101519.22;6277079;22;45473;-82
2022/06/02 01:18:34;;;;;;;;;6.00;4.25;;;;;15.97;43.64;101507.81;6310038;22;45353;-82
2022/06/02 01:21:07;;;;;;;;;6.75;3.50;;;;;15.92;43.54;101512.31;6310115;22;45301;-82
2022/06/02 01:23:44;;;;;;;;;2.50;2.50;;;;;15.86;43.95;101503.53;6282331;22;45373;-83
2022/06/02 01:26:22;;;;;;;;;4.00;4.00;;;;;15.82;44.22;101498.25;6310310;22;45416;-83
2022/06/02 01:29:13;;;;;;;;;3.50;3.50;;;;;15.76;44.29;101501.88;6276404;22;47282;-82
2022/06/02 01:31:48;;;;;;;;;4.25;3.75;;;;;15.71;44.34;101505.50;6251627;22;45628;-82
2022/06/02 01:34:32;;;;;;;;;5.00;5.00;;;;;15.69;44.85;101504.63;6263584;22;45317;-83
2022/06/02 01:37:03;;;;;;;;;3.50;3.50;;;;;15.67;44.95;101501.97;6250623;22;45308;-82
2022/06/02 01:39:44;;;;;;;;;6.00;6.00;;;;;15.66;44.70;101503.75;6278847;22;46461;-82
2022/06/02 01:42:18;;;;;;;;;4.50;4.50;;;;;15.64;44.48;101505.53;6279214;22;45296;-82
2022/06/02 01:45:07;;;;;;;;;6.00;5.50;;;;;15.59;44.78;101501.19;6279015;22;45235;-82
2022/06/02 01:47:40;;;;;;;;;4.25;4.25;;;;;15.52;44.69;101513.63;6234692;22;45498;-83
2022/06/02 01:50:36;;;;;;;;;5.00;5.00;;;;;15.46;44.82;101526.13;6278993;22;45438;-83
2022/06/02 01:53:20;;;;;;;;;3.00;3.00;;;;;15.40;45.52;101530.59;6251977;22;45208;-83
2022/06/02 01:56:00;;;;;;;;;3.75;3.00;;;;;15.39;45.69;101528.81;6277501;22;45355;-82
2022/06/02 01:59:01;;;;;;;;;6.75;5.50;;;;;15.37;45.76;101524.41;6250703;22;45194;-83
2022/06/02 02:01:48;;;;;;;;;4.00;4.00;;;;;15.36;45.69;101525.34;6278918;22;46224;-82
2022/06/02 02:04:14;;;;;;;;;8.00;8.00;;;;;15.31;45.85;101524.50;6276494;22;45254;-84
2022/06/02 02:07:22;;;;;;;;;4.75;4.75;;;;;15.27;45.78;101526.31;6279542;22;45280;-83
2022/06/02 02:10:29;;;;;;;;;4.50;4.00;;;;;15.26;46.25;101519.22;6194702;22;45542;-83
2022/06/02 02:13:23;;;;;;;;;5.25;3.00;;;;;15.24;46.04;101523.69;6255401;22;48082;-82
2022/06/02 02:16:20;;;;;;;;;6.00;6.00;;;;;15.19;46.31;101515.78;6250409;22;45545;-82
2022/06/02 02:19:23;;;;;;;;;4.75;4.75;;;;;15.14;46.03;101525.56;6250869;22;45363;-83
2022/06/02 02:22:33;;;;;;;;;4.00;4.00;;;;;15.10;46.39;101522.94;6278702;22;45271;-83
2022/06/02 02:25:01;;;;;;;;;4.00;4.00;;;;;15.05;46.53;101519.44;6205645;22;47338;-83
2022/06/02 02:28:02;;;;;;;;;6.75;6.00;;;;;14.98;46.87;101516.88;6279388;22;45479;-83
2022/06/02 02:30:29;;;;;;;;;4.50;4.50;;;;;14.96;47.04;101515.13;6277810;22;45417;-82
2022/06/02 02:33:13;;;;;;;;;5.00;5.00;;;;;14.95;46.70;101526.63;6278501;22;45106;-83
2022/06/02 02:35:56;;;;;;;;;6.00;6.00;;;;;14.91;46.90;101520.47;6250969;22;46480;-82
2022/06/02 02:38:35;;;;;;;;;6.00;6.00;;;;;14.90;47.19;101520.50;6250743;22;45189;-83
2022/06/02 02:41:09;;;;;;;;;6.00;6.00;;;;;14.87;47.21;101520.53;6278771;22;45160;-82
2022/06/02 02:43:52;;;;;;;;;5.00;5.00;;;;;14.83;47.08;101521.44;6251532;22;45303;-82
2022/06/02 02:46:25;;;;;;;;;5.25;4.75;;;;;14.79;46.97;101520.59;6250742;22;47525;-83
2022/06/02 02:48:54;;;;;;;;;6.25;5.75;;;;;14.73;47.33;101510.91;6278293;22;45449;-83
2022/06/02 02:51:37;;;;;;;;;6.75;5.75;;;;;14.73;47.72;101523.31;6250801;22;45292;-82
2022/06/02 02:54:13;;;;;;;;;6.00;6.00;;;;;14.70;47.40;101521.56;6279013;22;45404;-83
2022/06/02 02:57:06;;;;;;;;;4.75;4.75;;;;;14.69;47.71;101529.50;6250301;22;48065;-82
2022/06/02 02:59:45;;;;;;;;;6.50;6.50;;;;;14.66;47.50;101525.09;6250654;22;45763;-83
2022/06/02 03:02:23;;;;;;;;;6.50;5.00;;;;;14.65;47.82;101523.34;6279515;22;45160;-83
2022/06/02 03:05:08;;;;;;;;;6.75;6.75;;;;;14.63;47.80;101529.56;6250079;22;45303;-83
2022/06/02 03:07:34;;;;;;;;;6.00;6.00;;;;;14.60;47.66;101511.03;6250615;22;47111;-83
2022/06/02 03:10:11;;;;;;;;;9.75;8.25;;;;;14.56;48.01;101516.34;6250681;22;45325;-83
2022/06/02 03:12:39;;;;;;;;;6.50;6.50;;;;;14.55;48.50;101509.28;6278858;22;45176;-83
2022/06/02 03:15:11;;;;;;;;;5.25;5.25;;;;;14.55;48.31;101511.06;6251072;22;45550;-83
2022/06/02 03:17:45;;;;;;;;;6.25;6.00;;;;;14.54;48.07;101507.53;6278736;22;45175;-82
2022/06/02 03:20:39;;;;;;;;;7.25;5.75;;;;;14.52;47.89;101500.47;6250879;22;45331;-82
2022/06/02 03:23:23;;;;;;;;;8.00;6.25;;;;;14.50;47.94;101502.25;6279524;22;45371;-82
2022/06/02 03:26:07;;;;;;;;;7.50;7.00;;;;;14.49;47.78;101505.78;6277952;22;45470;-82
2022/06/02 03:28:56;;;;;;;;;7.00;6.00;;;;;14.45;48.06;101514.63;6287589;22;46342;-83
2022/06/02 03:31:45;;;;;;;;;6.25;6.25;;;;;14.43;48.22;101522.59;6307771;22;45413;-82
2022/06/02 03:34:13;;;;;;;;;6.00;6.00;;;;;14.41;48.15;101523.53;6307353;22;45272;-82
2022/06/02 03:37:08;;;;;;;;;7.75;6.50;;;;;14.38;48.42;101519.13;6309770;22;45331;-82
2022/06/02 03:40:01;;;;;;;;;5.75;5.75;;;;;14.36;48.33;101520.03;6281724;22;47176;-82
2022/06/02 03:42:47;;;;;;;;;8.25;6.00;;;;;14.37;48.55;101537.66;6281398;22;45503;-82
2022/06/02 03:45:32;;;;;;;;;6.00;6.00;;;;;14.36;48.54;101541.22;6309507;22;45365;-82
2022/06/02 03:48:40;;;;;;;;;4.00;4.00;;;;;14.36;48.29;101547.38;6309548;22;45350;-82
2022/06/02 03:51:21;;;;;;;;;5.75;5.75;;;;;14.33;48.36;101536.81;6309529;22;45409;-82
2022/06/02 03:54:20;;;;;;;;;6.50;6.50;;;;;14.31;48.61;101543.88;6309596;22;45554;-83
2022/06/02 03:57:22;;;;;;;;;7.00;7.00;;;;;14.30;48.31;101536.81;6310217;22;45473;-82
2022/06/02 04:00:11;;;;;;;;;6.00;6.00;;;;;14.28;48.90;101528.00;6310006;22;45383;-83
2022/06/02 04:02:50;;;;;;;;;5.50;5.50;;;;;14.26;48.56;101521.84;6296167;22;45208;-82
2022/06/02 04:05:57;;;;;;;;;6.00;6.00;;;;;14.26;48.64;101514.75;6281112;22;45891;-82
2022/06/02 04:08:49;;;;;;;;;7.75;6.75;;;;;14.26;49.09;101530.66;6310313;22;45286;-82
2022/06/02 04:13:37;;;;;;;;;9.00;9.00;;;;;14.28;48.75;101539.47;6281190;22;45460;-82
2022/06/02 04:14:36;;;;;;;;;7.00;7.00;;;;;14.28;48.91;101538.59;6308536;22;45810;-82
2022/06/02 04:17:28;;;;;;;;;5.75;5.50;;;;;14.30;48.65;101534.16;6282063;22;45247;-83
2022/06/02 04:23:22;;;;;;;;;5.00;5.00;;;;;14.36;48.75;101544.72;6309086;22;45250;-83
2022/06/02 04:26:24;;;;;;;;;6.50;6.25;;;;;14.39;48.69;101542.06;6306860;22;45536;-82
2022/06/02 04:29:08;;;;;;;;;7.00;6.00;;;;;14.44;48.76;101545.56;6275789;22;45411;-82
2022/06/02 04:31:57;;;;;;;;;8.25;7.00;;;;;14.49;48.98;101550.84;6276054;22;45355;-82
2022/06/02 04:34:43;;;;;;;;;8.00;8.00;;;;;14.52;49.04;101550.81;6251010;22;45486;-82
2022/06/02 04:37:27;;;;;;;;;9.50;8.75;;;;;14.52;48.67;101556.09;6233130;22;47986;-82
2022/06/02 04:40:12;;;;;;;;;7.50;6.50;;;;;14.55;48.91;101564.94;6276537;22;45332;-82
2022/06/02 04:42:59;;;;;;;;;8.50;8.00;;;;;14.59;48.75;101555.19;6277139;22;45219;-83
2022/06/02 04:45:55;;;;;;;;;9.00;8.00;;;;;14.61;48.70;101553.41;6278840;22;45127;-82
2022/06/02 04:48:28;;;;;;;;;9.00;9.00;;;;;14.63;48.78;101556.94;6250381;22;47827;-82
2022/06/02 04:51:26;;;;;;;;;6.00;6.00;;;;;14.67;48.66;101552.47;6249612;22;45940;-82
2022/06/02 04:54:11;;;;;;;;;8.25;8.00;;;;;14.70;48.03;101561.31;6250528;22;45318;-83
2022/06/02 04:56:39;;;;;;;;;11.00;7.75;;;;;14.74;48.77;101554.22;6278680;22;45164;-82
2022/06/02 04:59:10;;;;;;;;;10.25;8.75;;;;;14.77;48.38;101547.09;6249910;22;46949;-83
2022/06/02 05:02:12;;;;;;;;;8.00;7.00;;;;;14.81;48.38;101555.03;6249477;22;45282;-83
2022/06/02 05:05:02;;;;;;;;;9.00;9.00;;;;;14.85;48.19;101557.63;6264993;22;45121;-83
2022/06/02 05:08:04;;;;;;;;;7.75;7.75;;;;;14.88;48.30;101552.31;6277801;22;45331;-83
2022/06/02 05:10:51;;;;;;;;;8.50;8.50;;;;;14.92;48.41;101546.09;6275427;22;47761;-81
2022/06/02 05:13:57;;;;;;;;;10.00;8.75;;;;;14.96;48.28;101558.41;6249808;22;45347;-79
2022/06/02 05:16:38;;;;;;;;;8.00;6.75;;;;;15.01;48.34;101555.75;6256339;22;45362;-78
2022/06/02 05:19:45;;;;;;;;;5.75;5.75;;;;;15.04;48.10;101550.41;6277111;22;45177;-78
2022/06/02 05:22:31;;;;;;;;;9.00;7.00;;;;;15.07;47.90;101557.44;6201317;22;46165;-77
2022/06/02 05:25:25;;;;;;;;;11.00;7.75;;;;;15.11;48.08;101568.03;6249677;22;45436;-76
2022/06/02 05:28:16;;;;;;;;;6.00;6.00;;;;;15.16;48.09;101552.09;6277580;22;45173;-77
2022/06/02 05:31:14;;;;;;;;;8.50;8.50;;;;;15.22;48.08;101552.00;6308608;22;45109;-77
2022/06/02 05:33:58;;;;;;;;;8.00;8.00;;;;;15.32;48.01;101558.13;6286255;22;46021;-77
2022/06/02 05:36:55;;;;;;;;;8.25;7.00;;;;;15.38;47.89;101558.03;6308279;22;45254;-76
2022/06/02 05:39:29;;;;;;;;;8.00;8.00;;;;;15.46;47.37;101560.63;6223967;22;45319;-76
2022/06/02 05:42:21;;;;;;;;;8.50;7.50;;;;;15.51;47.75;101559.66;6308234;22;45362;-77
2022/06/02 05:45:14;;;;;;;;;8.00;8.00;;;;;15.56;47.37;101559.63;6297896;22;47190;-78
2022/06/02 05:48:24;;;;;;;;;8.00;7.75;;;;;15.63;47.42;101555.97;6298429;22;45357;-76
2022/06/02 05:51:26;;;;;;;;;;;;;;;;;;;;;
2022/06/02 05:54:05;;;;;;;;;11.25;11.25;;;;;15.70;47.19;101556.84;6308782;22;72142;-78
2022/06/02 05:56:40;;;;;;;;;9.00;8.50;;;;;15.74;47.21;101561.19;6309618;22;46144;-77
2022/06/02 05:59:31;;;;;;;;;9.75;9.75;;;;;15.78;46.98;101554.97;6281339;22;45247;-79
2022/06/02 06:02:28;;;;;;;;;8.50;8.50;;;;;15.79;46.96;101549.63;6308966;22;45505;-78
2022/06/02 06:05:06;;;;;;;;;9.00;9.00;;;;;15.82;46.84;101551.38;6287482;22;45329;-79
2022/06/02 06:08:03;;;;;;;;;9.75;9.25;;;;;15.81;46.95;101561.13;6309875;22;46110;-79
2022/06/02 06:10:29;;;;;;;;;8.25;8.25;;;;;15.83;46.73;101559.31;6310107;22;45304;-79
2022/06/02 06:13:21;;;;;;;;;11.00;10.75;;;;;15.82;47.08;101562.88;6310045;22;45393;-79
2022/06/02 06:16:11;;;;;;;;;11.50;9.50;;;;;15.82;46.80;101562.88;6309840;22;45571;-79
2022/06/02 06:19:02;;;;;;;;;8.00;8.00;;;;;15.83;46.96;101571.72;6309553;22;45835;-78
2022/06/02 06:21:43;;;;;;;;;9.75;9.75;;;;;15.82;46.69;101565.53;6281748;22;45799;-79
2022/06/02 06:24:20;;;;;;;;;8.50;8.25;;;;;15.83;47.13;101561.09;6310038;22;45409;-79
2022/06/02 06:26:48;;;;;;;;;9.00;9.00;;;;;15.83;46.75;101561.97;6309712;22;45073;-79
2022/06/02 06:29:50;;;;;;;;;16.75;13.25;;;;;15.84;46.83;101557.53;6309191;22;45463;-79
2022/06/02 06:32:38;;;;;;;;;10.25;8.75;;;;;15.87;46.92;101560.16;6309604;22;45310;-80
2022/06/02 06:35:25;;;;;;;;;9.25;9.25;;;;;15.86;47.16;101556.63;6309446;22;45294;-80
2022/06/02 06:38:14;;;;;;;;;9.50;9.50;;;;;15.88;46.90;101551.31;6309758;22;45428;-80
2022/06/02 06:40:49;;;;;;;;;6.75;6.75;;;;;15.93;47.22;101553.88;6309639;22;46240;-80
2022/06/02 06:44:00;;;;;;;;;9.25;9.25;;;;;15.98;46.93;101549.38;6309504;22;45266;-79
2022/06/02 06:47:00;;;;;;;;;6.00;6.00;;;;;16.04;46.84;101550.22;6281774;22;45233;-79
2022/06/02 06:49:52;;;;;;;;;12.00;12.00;;;;;16.13;46.77;101557.16;6248585;22;45385;-80
2022/06/02 06:52:23;;;;;;;;;12.50;10.00;;;;;16.19;47.07;101557.06;6309521;22;46171;-80
2022/06/02 06:55:01;;;;;;;;;12.50;11.25;;;;;16.27;46.63;101549.88;6309445;22;45308;-80
2022/06/02 06:58:07;;;;;;;;;11.00;11.00;;;;;16.36;46.60;101546.22;6309683;22;45266;-80
2022/06/02 07:00:43;;;;;;;;;14.50;14.00;;;;;16.42;46.58;101558.53;6243985;22;45461;-80
2022/06/02 07:03:33;;;;;;;;;11.50;9.50;;;;;16.51;46.39;101564.56;6303233;22;48293;-80
2022/06/02 07:06:08;;;;;;;;;11.50;9.50;;;;;16.60;46.25;101570.66;6309508;22;45291;-80
2022/06/02 07:08:39;;;;;;;;;11.50;11.00;;;;;16.64;46.10;101562.63;6309938;22;45331;-80
2022/06/02 07:14:13;;;;;;;;;11.50;10.25;;;;;16.81;45.98;101559.69;6308814;22;45370;-79
2022/06/02 07:16:55;;;;;;;;;11.00;11.00;;;;;16.91;45.86;101565.75;6309470;22;45342;-80
2022/06/02 07:19:44;;;;;;;;;10.00;10.00;;;;;17.01;45.87;101569.16;6306386;22;45118;-79
2022/06/02 07:22:23;;;;;;;;;7.75;5.75;;;;;17.10;45.48;101566.31;6309332;22;45285;-79
2022/06/02 07:24:55;;;;;;;;;9.75;9.75;;;;;17.21;45.50;101572.31;6309039;22;45667;-81
2022/06/02 07:27:39;;;;;;;;;11.00;11.00;;;;;17.29;45.51;101569.53;6309277;22;45325;-80
2022/06/02 07:30:34;;;;;;;;;8.25;8.25;;;;;17.39;45.39;101571.13;6275367;22;45373;-80
2022/06/02 07:33:21;;;;;;;;;9.50;9.50;;;;;17.50;45.00;101573.56;6249818;22;45443;-80
2022/06/02 07:36:01;;;;;;;;;12.25;10.00;;;;;17.62;44.82;101565.38;6277708;22;45327;-79
2022/06/02 07:38:30;;;;;;;;;11.25;10.50;;;;;17.74;44.82;101566.91;6278134;22;45301;-80
2022/06/02 07:41:04;;;;;;;;;10.00;8.75;;;;;17.84;44.60;101563.16;6277939;22;45369;-79
2022/06/02 07:43:53;;;;;;;;;8.75;8.75;;;;;17.95;44.35;101568.28;6277643;22;45300;-80
2022/06/02 07:46:57;;;;;;;;;10.00;9.00;;;;;18.04;43.70;101560.06;6277863;22;45545;-80
2022/06/02 07:49:44;;;;;;;;;9.25;9.25;;;;;18.15;43.85;101565.16;6277541;22;45207;-79
2022/06/02 07:52:45;;;;;;;;;10.75;10.00;;;;;18.25;43.77;101567.59;6275774;22;45379;-81
2022/06/02 07:55:18;;;;;;;;;9.00;9.00;;;;;18.36;43.32;101559.34;6277841;22;45256;-80
2022/06/02 07:57:43;;;;;;;;;9.00;9.00;;;;;18.45;43.35;101566.28;6250125;22;47015;-80
2022/06/02 08:00:24;;;;;;;;;9.75;9.75;;;;;18.52;43.11;101551.88;6277337;22;45337;-79
2022/06/02 08:03:12;;;;;;;;;7.75;7.75;;;;;18.61;42.62;101548.13;6249886;22;45239;-79
2022/06/02 08:05:42;;;;;;;;;10.00;9.00;;;;;18.73;42.46;101555.81;6247826;22;45320;-79
2022/06/02 08:08:24;;;;;;;;;8.00;8.00;;;;;18.94;42.32;101538.44;6249694;22;46479;-79
2022/06/02 08:11:09;;;;;;;;;7.25;7.25;;;;;19.23;42.08;101532.31;6249922;22;45390;-80
2022/06/02 08:13:47;;;;;;;;;9.00;8.00;;;;;19.60;41.31;101524.16;6277675;22;45367;-79
2022/06/02 08:16:16;;;;;;;;;10.50;8.50;;;;;19.97;40.85;101533.81;6249634;22;45236;-77
2022/06/02 08:18:57;;;;;;;;;6.50;6.50;;;;;20.27;40.35;101521.28;6277165;22;46232;-77
2022/06/02 08:21:32;;;;;;;;;3.25;3.25;;;;;20.51;39.48;101520.56;6278151;22;45101;-81
2022/06/02 08:24:16;;;;;;;;;6.00;6.00;;;;;20.74;39.19;101517.13;6276794;22;45106;-80
2022/06/02 08:27:09;;;;;;;;;5.25;5.25;;;;;20.93;38.79;101524.50;6250090;22;45957;-80
2022/06/02 08:29:34;;;;;;;;;4.75;4.75;;;;;21.20;38.27;101526.25;6300401;22;45494;-80
2022/06/02 08:32:10;;;;;;;;;6.00;5.00;;;;;21.38;38.14;101517.59;6308946;22;45354;-80
2022/06/02 08:34:42;;;;;;;;;5.75;5.75;;;;;21.55;37.49;101520.53;6280228;22;45370;-81
2022/06/02 08:37:29;;;;;;;;;6.75;6.75;;;;;21.69;37.06;101511.97;6308389;22;45319;-80
2022/06/02 08:40:28;;;;;;;;;2.25;2.25;;;;;21.77;36.65;101511.69;6308722;22;46360;-81
2022/06/02 08:43:33;;;;;;;;;7.00;6.00;;;;;21.85;36.00;101504.22;6280132;22;45878;-80
2022/06/02 08:46:25;;;;;;;;;5.25;5.25;;;;;21.85;36.04;101508.72;6308565;22;45179;-82
2022/06/02 08:49:19;;;;;;;;;7.00;5.75;;;;;21.90;35.79;101514.78;6279888;22;45654;-81
2022/06/02 08:52:18;;;;;;;;;5.00;5.00;;;;;21.93;35.90;101510.16;6305767;22;48615;-81
2022/06/02 08:55:11;;;;;;;;;6.50;5.25;;;;;21.98;35.35;101504.63;6308405;22;45117;-80
2022/06/02 08:57:55;;;;;;;;;6.00;5.25;;;;;21.98;35.65;101504.63;6308550;22;45174;-81
2022/06/02 09:00:44;;;;;;;;;6.33;6.33;;;;;22.07;35.61;101506.06;6280807;22;45599;-80
2022/06/02 09:03:18;;;;;;;;;5.67;4.67;;;;;22.16;35.45;101511.94;6308224;22;46186;-81
2022/06/02 09:06:16;;;;;;;;;4.50;4.00;;;;;22.22;34.66;101500.13;6308252;22;45237;-82
2022/06/02 09:09:10;;;;;;;;;7.00;5.33;;;;;22.24;34.84;101496.44;6280260;22;45442;-81
2022/06/02 09:12:15;;;;;;;;;5.00;5.00;;;;;22.22;34.40;101492.94;6307973;22;45244;-80
2022/06/02 09:15:02;;;;;;;;;5.00;5.00;;;;;22.23;34.40;101492.00;6242933;22;47471;-81
2022/06/02 09:17:51;;;;;;;;;6.00;6.00;;;;;22.31;34.46;101482.78;6279816;22;45179;-80
2022/06/02 09:20:41;;;;;;;;;4.00;4.00;;;;;22.42;34.22;101484.06;6307707;22;45286;-80
2022/06/02 09:23:16;;;;;;;;;4.33;4.33;;;;;22.55;34.16;101484.44;6265054;22;45287;-80
2022/06/02 09:26:18;;;;;;;;;3.00;3.00;;;;;22.73;34.10;101487.31;6309757;22;46439;-80
2022/06/02 09:29:06;;;;;;;;;4.33;4.33;;;;;22.84;33.69;101483.22;6281348;22;45865;-81
2022/06/02 09:31:56;;;;;;;;;4.00;4.00;;;;;22.99;33.43;101483.50;6309355;22;45228;-81
2022/06/02 09:34:46;;;;;;;;;4.00;4.00;;;;;23.12;32.63;101482.03;6309235;22;45361;-81
2022/06/02 09:37:42;;;;;;;;;4.67;3.33;;;;;23.24;32.50;101478.81;6309696;22;45423;-81
2022/06/02 09:40:16;;;;;;;;;3.00;3.00;;;;;23.41;32.84;101486.09;6281925;22;45323;-79
2022/06/02 09:43:06;;;;;;;;;2.00;2.00;;;;;23.50;31.89;101480.31;6309571;22;45524;-82
2022/06/02 09:45:43;;;;;;;;;4.00;4.00;;;;;23.59;31.56;101479.00;6281535;22;45511;-82
2022/06/02 09:48:30;;;;;;;;;3.00;3.00;;;;;23.64;31.59;101490.41;6307208;22;47485;-83
2022/06/02 09:51:22;;;;;;;;;4.00;4.00;;;;;23.59;31.64;101483.53;6309550;22;45106;-84
2022/06/02 09:54:13;;;;;;;;;3.00;3.00;;;;;23.60;31.41;101494.19;6281519;22;45205;-82
2022/06/02 10:00:38;;;;;;;;;3.00;3.00;;;;;23.71;30.84;101485.63;6309379;22;45216;-84
2022/06/02 10:03:25;;;;;;;;;1.67;1.67;;;;;23.82;30.98;101491.41;6281599;22;45225;-84
2022/06/02 10:06:13;;;;;;;;;3.00;3.00;;;;;23.93;30.67;101502.53;6310197;22;45200;-84
2022/06/02 10:09:14;;;;;;;;;2.00;2.00;;;;;24.06;30.49;101494.75;6281473;22;45284;-83
2022/06/02 10:12:54;;;;;;;;;3.67;3.67;;;;;24.23;30.79;101487.69;6280120;22;47081;-84
2022/06/02 10:15:09;;;;;;;;;3.00;3.00;;;;;24.41;30.10;101486.78;6308563;22;45167;-84
2022/06/02 10:17:43;;;;;;;;;3.33;3.33;;;;;24.59;29.63;101483.19;6308010;22;45362;-81
2022/06/02 10:20:39;;;;;;;;;3.00;3.00;;;;;24.73;29.54;101478.94;6309332;22;45337;-83
2022/06/02 10:23:31;;;;;;;;;3.00;3.00;;;;;24.73;29.27;101469.03;6309514;22;46565;-83
2022/06/02 10:26:09;;;;;;;;;3.00;3.00;;;;;24.59;28.40;101463.44;6281200;22;45367;-82
2022/06/02 10:29:12;;;;;;;;;4.33;3.00;;;;;24.45;28.65;101469.53;6309634;22;45401;-83
2022/06/02 10:32:15;;;;;;;;;5.00;4.00;;;;;24.38;28.96;101465.41;6310002;22;45765;-83
2022/06/02 10:35:09;;;;;;;;;3.00;2.00;;;;;24.19;28.74;101460.94;6282619;22;46834;-90
2022/06/02 10:38:11;;;;;;;;;3.00;3.00;;;;;24.01;28.27;101459.13;6281246;22;45324;-87
2022/06/02 10:40:46;;;;;;;;;2.00;2.00;;;;;23.96;28.14;101466.56;6281686;22;45326;-87
2022/06/02 10:43:44;;;;;;;;;3.33;2.67;;;;;24.02;28.74;101466.25;6309359;22;45343;-82
2022/06/02 10:46:58;;;;;;;;;6.00;5.00;;;;;24.09;28.35;101464.16;6279778;22;47605;-82
2022/06/02 10:49:44;;;;;;;;;3.00;3.00;;;;;24.18;29.07;101463.69;6254061;22;45204;-82
2022/06/02 10:52:30;;;;;;;;;4.00;4.00;;;;;24.37;28.64;101455.56;6281297;22;45233;-82
2022/06/02 10:55:08;;;;;;;;;3.00;3.00;;;;;24.49;28.36;101455.00;6280979;22;45441;-84
2022/06/02 10:57:58;;;;;;;;;2.00;2.00;;;;;24.69;28.21;101450.41;6281377;22;47209;-83
2022/06/02 11:00:45;;;;;;;;;4.00;3.00;;;;;24.94;27.58;101439.19;6309359;22;45120;-84
2022/06/02 11:03:32;;;;;;;;;4.00;4.00;;;;;25.18;27.93;101439.75;6280723;22;45405;-85
2022/06/02 11:06:35;;;;;;;;;2.33;2.33;;;;;25.41;27.51;101442.06;6281531;22;45433;-86
2022/06/02 11:09:19;;;;;;;;;3.00;3.00;;;;;25.60;27.29;101443.75;6281289;22;46971;-84
2022/06/02 11:11:50;;;;;;;;;2.00;1.00;;;;;25.80;26.73;101432.75;6309171;22;45286;-84
2022/06/02 11:14:24;;;;;;;;;2.00;2.00;;;;;25.95;26.67;101439.09;6309548;22;45341;-85
2022/06/02 11:17:20;;;;;;;;;4.00;4.00;;;;;25.96;25.68;101430.06;6309625;22;45442;-82
2022/06/02 11:20:15;;;;;;;;;4.00;4.00;;;;;26.04;26.11;101429.63;6280825;22;47463;-83
2022/06/02 11:22:59;;;;;;;;;4.33;4.33;;;;;26.17;26.01;101425.25;6309588;22;45586;-84
2022/06/02 11:25:51;;;;;;;;;4.67;4.67;;;;;26.32;26.33;101418.94;6283410;22;45351;-81
2022/06/02 11:28:49;;;;;;;;;2.67;2.67;;;;;26.46;26.22;101414.56;6309940;22;45622;-82
2022/06/02 11:31:42;;;;;;;;;4.33;4.00;;;;;26.51;26.15;101413.34;6279859;22;47347;-85
2022/06/02 11:34:28;;;;;;;;;4.67;4.33;;;;;26.64;26.10;101413.47;6280788;22;45580;-84
2022/06/02 11:37:44;;;;;;;;;3.00;3.00;;;;;26.68;26.24;101408.75;6283671;22;45394;-83
2022/06/02 11:40:15;;;;;;;;;6.00;6.00;;;;;26.82;26.33;101393.44;6263477;22;45338;-82
2022/06/02 11:42:55;;;;;;;;;4.00;4.00;;;;;26.86;26.25;101395.97;6321781;22;45257;-82
2022/06/02 11:45:48;;;;;;;;;5.33;5.00;;;;;26.90;26.40;101389.41;6317855;22;44688;-80
2022/06/02 11:48:51;;;;;;;;;4.75;4.25;;;;;26.91;26.12;101383.91;6296994;22;44718;-82
2022/06/02 11:51:38;;;;;;;;;5.33;5.33;;;;;26.97;26.25;101391.66;6324143;22;45113;-81
2022/06/02 11:54:38;;;;;;;;;9.00;7.67;;;;;27.11;26.54;101390.78;6287218;22;47669;-82
2022/06/02 11:57:21;;;;;;;;;4.00;4.00;;;;;27.32;26.09;101394.00;6307377;22;45138;-83
2022/06/02 12:00:28;;;;;;;;;5.00;5.00;;;;;27.36;25.81;101384.69;6307740;22;45278;-83
2022/06/02 12:03:41;;;;;;;;;8.67;8.67;;;;;27.64;26.24;101386.50;6211073;22;45328;-82
2022/06/02 12:06:18;;;;;;;;;3.67;2.67;;;;;27.91;25.49;101386.53;6211629;22;45329;-81
2022/06/02 12:09:04;;;;;;;;;0.33;0.33;;;;;27.98;25.16;101387.00;6266034;22;45176;-81
2022/06/02 12:11:38;;;;;;;;;4.33;2.00;;;;;27.91;25.60;101380.28;6278686;22;45113;-82
2022/06/02 12:14:04;;;;;;;;;6.00;6.00;;;;;27.89;25.35;101374.09;6306870;22;45478;-82
2022/06/02 12:16:39;;;;;;;;;4.67;4.33;;;;;27.85;25.35;101367.13;6278632;22;47197;-82
2022/06/02 12:19:47;;;;;;;;;4.00;4.00;;;;;27.93;25.68;101370.19;6278260;22;45259;-81
2022/06/02 12:22:27;;;;;;;;;2.67;2.67;;;;;28.31;25.69;101364.03;6263984;22;45460;-79
2022/06/02 12:24:59;;;;;;;;;5.50;5.50;;;;;28.76;25.04;101360.00;6306172;22;45247;-77
2022/06/02 12:30:58;;;;;;;;;3.33;3.33;;;;;28.98;22.26;101358.47;5075978;28;45313;-78
2022/06/02 12:34:00;;;;;;;;;4.00;3.00;;;;;28.77;22.52;101356.31;5055780;28;45329;-79
2022/06/02 12:37:10;;;;;;;;;;;;;;;;;;;;;
2022/06/02 12:40:06;;;;;;;;;3.00;2.67;;;;;28.78;22.72;101343.63;5054891;28;71638;-79
2022/06/02 12:42:53;;;;;;;;;2.67;2.67;;;;;28.56;22.26;101344.28;5054498;28;48326;-79
2022/06/02 12:45:55;;;;;;;;;3.33;3.33;;;;;28.49;22.93;101346.53;5055740;28;45181;-79
2022/06/02 12:48:33;;;;;;;;;3.33;3.33;;;;;28.65;23.10;101334.63;5042318;28;45289;-77
2022/06/02 12:51:17;;;;;;;;;3.00;3.00;;;;;28.85;22.53;101328.66;5054313;28;45255;-77
2022/06/02 12:54:04;;;;;;;;;2.33;2.33;;;;;29.11;22.09;101321.41;5055498;28;45438;-78
2022/06/02 12:56:46;;;;;;;;;2.67;2.67;;;;;29.22;22.46;101323.34;5054185;28;45348;-78
2022/06/02 12:59:28;;;;;;;;;1.67;1.67;;;;;29.32;21.88;101321.66;5055661;28;45335;-78
2022/06/02 13:02:08;;;;;;;;;3.00;3.00;;;;;29.41;21.85;101325.56;5055370;28;45413;-78
2022/06/02 13:05:01;;;;;;;;;2.33;2.33;;;;;29.74;21.11;101319.47;5055197;28;45410;-79
2022/06/02 13:08:11;;;;;;;;;2.00;2.00;;;;;30.15;21.35;101318.16;5056685;28;45226;-81
2022/06/02 13:10:49;;;;;;;;;1.67;1.67;;;;;29.99;21.03;101321.22;5058100;28;45310;-82